• Join FlightAware (Why Join?)
  • Login
  • US Flag 
07:15PM EDT


 

Airport Tracker/Info


-or-


 

Live Flight TrackerFlight Track Log ✈ GJS3697 ✈ 15-May-2013 ✈ KMSY - KORD

Flight Track Log - Related Links

Times and Time Zones

All times are in EDT time to prevent confusion due to time zone crossing. See the GJS3697 flight status page for this flight to view local times or setup timezone preferences in your user account.

Time Position Orientation Groundspeed Altitude Reporting Facility
EDT Latitude Longitude Course Direction KTS MPH feet Rate Location/Type
07:02PM 29.9739 -90.2539 North 155 178 600  Level Houston Center
07:03PM 29.9492 -90.2644 200° South 163 188 1,600 1,260 Climbing Houston Center
07:03PM 29.9428 -90.2678 204° Southwest 169 194 1,800 1,920 Climbing Houston Center
07:04PM 29.9364 -90.3250 263° West 264 304 4,000 2,460 Climbing Houston Center
07:05PM 30.0103 -90.3533 342° North 294 338 6,500 2,340 Climbing Houston Center
07:06PM 30.0969 -90.3894 340° North 282 325 9,300 2,040 Climbing Houston Center
07:07PM 30.4980 -90.4500 North  Level FlightAware Approximate
07:07PM 30.1772 -90.4175 343° North 294 338 11,100  Level Houston Center
07:08PM 30.6112 -90.4414 North  Level FlightAware Approximate
07:08PM 30.2706 -90.4531 342° North 341 392 12,600  Level Houston Center
07:10PM 30.3700 -90.4878 343° North 367 422 14,300 1,920 Climbing Houston Center
07:11PM 30.4942 -90.5297 344° North 383 441 16,700 2,040 Climbing Houston Center
07:12PM 30.6000 -90.5583 347° North 389 448 18,600 1,500 Climbing Houston Center
07:13PM 30.7022 -90.5875 346° North 382 440 19,900 1,020 Climbing Houston Center
07:14PM 30.8103 -90.5831 North 391 450 20,800 1,020 Climbing Houston Center
07:15PM 30.9261 -90.5700 North 410 472 22,100 1,020 Climbing Houston Center
07:16PM 31.0394 -90.5572 North 409 471 23,000 780 Climbing Houston Center
07:17PM 31.1583 -90.5442 North 421 484 23,800 840 Climbing Houston Center
07:18PM 31.3078 -90.5278 North 439 505 24,800 960 Climbing Houston Center
07:19PM 31.4331 -90.5131 North 454 522 25,800 960 Climbing Houston Center
07:20PM 31.5606 -90.4994 North 458 527 26,800 960 Climbing Houston Center
07:21PM 31.6894 -90.4856 North 462 532 27,800 960 Climbing Houston Center
07:22PM 31.8208 -90.4697 North 469 540 28,800 1,080 Climbing Houston Center
07:23PM 31.9578 -90.4528 North 469 540 29,900 1,080 Climbing Memphis Center
07:24PM 32.0894 -90.4383 North 469 540 30,900 960 Climbing Memphis Center
07:25PM 32.2189 -90.4236 North 464 534 31,900 960 Climbing Memphis Center
07:26PM 32.3503 -90.4089 North 464 534 32,900 960 Climbing Memphis Center
07:27PM 32.4819 -90.3942 North 464 534 33,900 960 Climbing Memphis Center
07:28PM 32.6114 -90.3769 North 464 534 34,900 960 Climbing Memphis Center
07:29PM 32.7367 -90.3647 North 459 528 35,900 960 Climbing Memphis Center
07:30PM 32.8619 -90.3497 North 459 528 36,900 540 Climbing Memphis Center
07:31PM 32.9872 -90.3350 North 459 528 37,000  Climbing Memphis Center
07:32PM 33.1186 -90.3200 North 464 534 37,000  Level Memphis Center
07:33PM 33.2544 -90.3050 North 469 540 37,000  Level Memphis Center
07:34PM 33.3858 -90.2875 North 474 545 37,000  Level Memphis Center
07:35PM 33.5214 -90.2700 North 479 551 37,000  Level Memphis Center
07:36PM 33.6508 -90.2450 North 479 551 37,000  Level Memphis Center
07:37PM 33.7844 -90.2197 North 479 551 37,000  Level Memphis Center
07:38PM 33.9117 -90.1944 North 472 543 37,000  Level Memphis Center
07:39PM 34.0453 -90.1717 North 467 537 37,000  Level Memphis Center
07:40PM 34.1767 -90.1464 North 467 537 37,000 240 Level Memphis Center
07:41PM 34.3061 -90.1208 North 473 544 37,500 660 Climbing Memphis Center
07:42PM 34.4333 -90.0978 North 467 537 38,400 720 Climbing Memphis Center
07:43PM 34.5606 -90.0747 North 460 529 39,000 300 Climbing Memphis Center
07:44PM 34.6731 -90.0542 North 454 522 39,000  Level Memphis Center
07:45PM 34.8025 -90.0333 North 462 532 39,000  Level Memphis Center
07:46PM 34.9381 -90.0050 10° North 482 555 39,000  Level Memphis Center
07:47PM 35.0778 -89.9917 North 482 555 39,000  Level Memphis Center
07:48PM 35.2050 -90.0014 356° North 458 527 39,000  Level Memphis Center
07:49PM 35.3303 -90.0136 355° North 453 521 39,000  Level Memphis Center
07:50PM 35.4553 -90.0231 356° North 447 514 39,000  Level Memphis Center
07:51PM 35.5806 -90.0353 355° North 442 509 39,000  Level Memphis Center
07:52PM 35.6953 -90.0478 355° North 444 511 39,000  Level Memphis Center
07:53PM 35.8183 -90.0600 355° North 432 497 39,000  Level Memphis Center
07:54PM 35.9436 -90.0750 354° North 438 504 39,000  Level Memphis Center
07:55PM 36.0686 -90.0847 356° North 444 511 39,000  Level Memphis Center
07:56PM 36.1917 -90.0972 355° North 444 511 39,000  Level Memphis Center
07:57PM 36.3167 -90.1097 355° North 444 511 39,000  Level Memphis Center
07:58PM 36.4378 -90.1222 355° North 444 511 39,000  Level Memphis Center
08:00PM 36.6661 -90.1397 356° North 443 510 39,000  Level Kansas City Center
08:01PM 36.7906 -90.1508 356° North 445 512 39,000  Level Kansas City Center
08:02PM 36.9406 -90.1647 356° North 447 514 39,000  Level Kansas City Center
08:03PM 37.0658 -90.1750 356° North 450 518 39,000  Level Kansas City Center
08:04PM 37.1919 -90.1872 356° North 451 519 39,000  Level Kansas City Center
08:05PM 37.3172 -90.1994 356° North 451 519 39,000 -420 Level Kansas City Center
08:06PM 37.4258 -90.2322 347° North 447 514 38,200 -540 Descending Kansas City Center
08:07PM 37.5567 -90.3056 336° Northwest 431 496 38,000 -120 Descending Kansas City Center
08:08PM 37.6667 -90.3683 336° Northwest 432 497 38,000  Level Kansas City Center
08:09PM 37.7761 -90.4325 335° Northwest 433 498 38,000  Level Kansas City Center
08:10PM 37.8864 -90.4961 336° Northwest 434 499 38,000  Level Kansas City Center
08:11PM 37.9972 -90.5606 335° Northwest 435 501 38,000  Level Kansas City Center
08:12PM 38.1078 -90.6258 335° Northwest 436 502 38,000  Level Kansas City Center
08:13PM 38.2194 -90.6900 336° Northwest 438 504 38,000  Level Kansas City Center
08:14PM 38.3361 -90.7425 341° North 444 511 38,000  Level Kansas City Center
08:15PM 38.4892 -90.7144 North 461 531 38,000  Level Kansas City Center
08:16PM 38.6131 -90.6653 17° North 468 539 38,000 -480 Level Kansas City Center
08:17PM 38.7392 -90.6161 17° North 472 543 37,100 -540 Descending Kansas City Center
08:18PM 38.8622 -90.5669 17° North 467 537 37,000 -60 Descending Kansas City Center
08:19PM 38.9903 -90.5122 18° North 458 527 37,000  Level Kansas City Center
08:20PM 39.1119 -90.4617 18° North 456 525 37,000  Level Kansas City Center
08:21PM 39.2342 -90.4114 18° North 459 528 37,000  Level Kansas City Center
08:22PM 39.3581 -90.3600 18° North 464 534 37,000  Level Kansas City Center
08:24PM 39.4808 -90.3078 18° North 465 535 37,000  Level Kansas City Center
08:25PM 39.6311 -90.2458 18° North 469 540 37,000 -540 Level Kansas City Center
08:26PM 39.7525 -90.1947 18° North 471 542 36,000 -1,080 Descending Kansas City Center
08:27PM 39.8775 -90.1408 18° North 472 543 34,800 -1,260 Descending Kansas City Center
08:27PM 39.9519 -90.1106 17° North 472 543 34,100 -1,200 Descending Chicago Center
08:28PM 40.0747 -90.0586 18° North 467 537 33,000 -540 Descending Chicago Center
08:29PM 40.1961 -90.0078 18° North 460 529 33,000 -420 Level Chicago Center
08:30PM 40.3175 -89.9553 18° North 455 524 32,200 -900 Descending Chicago Center
08:31PM 40.4217 -89.9100 18° North 413 475 31,200 -1,020 Descending Chicago Center
08:32PM 40.5236 -89.8622 20° North 388 447 30,200 -1,020 Descending Chicago Center
08:33PM 40.6500 -89.8081 18° North 395 455 29,200 -900 Descending Chicago Center
08:34PM 40.7517 -89.7636 18° North 392 451 28,400 -720 Descending Chicago Center
08:35PM 40.8581 -89.7211 17° North 390 449 27,800 -720 Descending Chicago Center
08:36PM 40.9597 -89.6764 18° North 386 444 27,000 -1,320 Descending Chicago Center
08:37PM 41.0761 -89.6242 19° North 395 455 25,100 -1,680 Descending Chicago Center
08:39PM 41.1731 -89.5522 29° Northeast 418 481 23,600 -1,440 Descending Chicago Center
08:40PM 41.2297 -89.4203 60° Northeast 414 476 22,100 -1,680 Descending Chicago Center
08:41PM 41.2817 -89.2872 63° Northeast 407 468 20,200 -2,040 Descending Chicago Center
08:42PM 41.3356 -89.1539 62° Northeast 393 452 18,000 -2,040 Descending Chicago Center
08:43PM 41.3853 -89.0306 62° Northeast 383 441 16,000 -2,160 Descending Chicago Center
08:44PM 41.4419 -88.8867 62° Northeast 370 426 13,600 -1,620 Descending Chicago Center
08:45PM 41.4864 -88.7761 62° Northeast 345 397 12,700 -960 Descending Chicago Center
08:46PM 41.5272 -88.6714 62° Northeast 325 374 11,700 -840 Descending Chicago Center
08:47PM 41.5708 -88.5669 61° Northeast 327 376 11,000 -780 Descending Chicago Center
08:48PM 41.6269 -88.4769 50° Northeast 319 367 10,100 -780 Descending Chicago Center
08:49PM 41.6789 -88.3942 50° Northeast 293 337 9,500 -840 Descending Chicago Center
08:50PM 41.7428 -88.3342 35° Northeast 250 288 8,400 -1,020 Descending Chicago Center
08:51PM 41.8061 -88.3322 North 227 261 7,400 -840 Descending Chicago Center
08:52PM 41.8661 -88.3319 360° North 217 250 6,700 -780 Descending Chicago Center
08:53PM 41.9189 -88.3306 North 193 222 5,800 -780 Descending Chicago Center
08:54PM 41.9494 -88.2708 55° Northeast 214 246 5,100 -660 Descending Chicago Center
08:55PM 41.9628 -88.1975 76° East 207 238 4,500 -600 Descending Chicago Center